Fairmont Hot Springs, Canada
Current Conditions -  °F | °C
As of 2:00 AM on Sunday 23 Nov 2014 (Local Time) from CYXC Reporting Station
Few Clouds Few Clouds  
Wind Chill: 23°   Ceiling: Unl
Heat Index: 23°   Visibility: 25mi
Dew Point: 19°   Wind: 2mph
Humidity: 86%   Direction: NA
Pressure: 29.86"   Gusts: NA
Location:  50.34°N, 115.86°W
Report Text: CYXC 230900Z VRB02KT 25SM FEW150 M05/M07 A2986 RMK AC2 SLP142
Loading
Personal Weather Stations






























Interactive Weather Map New forecast layout! Learn more

10-Day Weather Forecast

Advertisements
Track Severe Weather on mobile